sensor_id;sensor_type;location;lat;lon;timestamp;pressure;altitude;pressure_sealevel;temperature;humidity
49611;BME280;35515;48.766;9.176;2023-03-12T00:01:09;98003.09;;;1.27;62.67
49611;BME280;35515;48.766;9.176;2023-03-12T00:03:36;98002.56;;;1.24;62.77
49611;BME280;35515;48.766;9.176;2023-03-12T00:06:06;98006.44;;;1.29;62.15
49611;BME280;35515;48.766;9.176;2023-03-12T00:08:33;98007.53;;;1.19;62.93
49611;BME280;35515;48.766;9.176;2023-03-12T00:11:00;98008.34;;;1.11;63.08
49611;BME280;35515;48.766;9.176;2023-03-12T00:13:30;98005.78;;;1.09;63.74
49611;BME280;35515;48.766;9.176;2023-03-12T00:16:02;98017.91;;;1.22;63.02
49611;BME280;35515;48.766;9.176;2023-03-12T00:18:28;98013.22;;;1.24;63.28
49611;BME280;35515;48.766;9.176;2023-03-12T00:20:55;98017.53;;;1.16;63.32
49611;BME280;35515;48.766;9.176;2023-03-12T00:23:23;98008.91;;;1.23;63.58
49611;BME280;35515;48.766;9.176;2023-03-12T00:25:49;98020.44;;;1.05;63.64
49611;BME280;35515;48.766;9.176;2023-03-12T00:28:16;98016.41;;;1.01;63.75
49611;BME280;35515;48.766;9.176;2023-03-12T00:30:42;98021.59;;;1.03;64.46
49611;BME280;35515;48.766;9.176;2023-03-12T00:33:09;98016.41;;;1.01;63.86
49611;BME280;35515;48.766;9.176;2023-03-12T00:35:36;98010.25;;;1.00;64.01
49611;BME280;35515;48.766;9.176;2023-03-12T00:38:03;98010.66;;;0.88;64.38
49611;BME280;35515;48.766;9.176;2023-03-12T00:40:31;98019.75;;;0.77;65.13
49611;BME280;35515;48.766;9.176;2023-03-12T00:42:58;98010.25;;;1.00;64.37
49611;BME280;35515;48.766;9.176;2023-03-12T00:45:24;98000.78;;;1.06;63.89
49611;BME280;35515;48.766;9.176;2023-03-12T00:47:51;98003.72;;;0.95;64.03
49611;BME280;35515;48.766;9.176;2023-03-12T00:50:18;98000.91;;;0.78;65.17
49611;BME280;35515;48.766;9.176;2023-03-12T00:52:45;98003.13;;;0.83;64.97
49611;BME280;35515;48.766;9.176;2023-03-12T00:55:12;98002.97;;;0.85;64.77
49611;BME280;35515;48.766;9.176;2023-03-12T00:57:40;98002.41;;;0.99;64.55
49611;BME280;35515;48.766;9.176;2023-03-12T01:00:07;97993.88;;;0.95;64.06
49611;BME280;35515;48.766;9.176;2023-03-12T01:02:34;98003.13;;;0.83;64.89
49611;BME280;35515;48.766;9.176;2023-03-12T01:05:01;98002.72;;;0.96;64.84
49611;BME280;35515;48.766;9.176;2023-03-12T01:07:28;98003.63;;;0.87;65.34
49611;BME280;35515;48.766;9.176;2023-03-12T01:09:54;98002.50;;;0.89;65.02
49611;BME280;35515;48.766;9.176;2023-03-12T01:12:21;98004.72;;;0.94;64.91
49611;BME280;35515;48.766;9.176;2023-03-12T01:14:49;97999.28;;;0.77;65.18
49611;BME280;35515;48.766;9.176;2023-03-12T01:17:15;98001.66;;;0.89;64.84
49611;BME280;35515;48.766;9.176;2023-03-12T01:19:42;97997.28;;;0.79;65.37
49611;BME280;35515;48.766;9.176;2023-03-12T01:22:08;98007.47;;;0.84;65.25
49611;BME280;35515;48.766;9.176;2023-03-12T01:24:35;98002.50;;;0.89;64.29
49611;BME280;35515;48.766;9.176;2023-03-12T01:27:01;98001.50;;;0.90;64.77
49611;BME280;35515;48.766;9.176;2023-03-12T01:29:28;97997.28;;;0.79;65.99
49611;BME280;35515;48.766;9.176;2023-03-12T01:31:56;98002.09;;;1.02;64.63
49611;BME280;35515;48.766;9.176;2023-03-12T01:34:22;97998.53;;;0.93;64.69
49611;BME280;35515;48.766;9.176;2023-03-12T01:36:49;97998.25;;;0.78;65.58
49611;BME280;35515;48.766;9.176;2023-03-12T01:39:15;98004.94;;;0.82;65.59
49611;BME280;35515;48.766;9.176;2023-03-12T01:41:42;98006.69;;;0.92;64.81
49611;BME280;35515;48.766;9.176;2023-03-12T01:44:12;98005.59;;;1.03;64.96
49611;BME280;35515;48.766;9.176;2023-03-12T01:46:41;98002.72;;;0.96;65.74
49611;BME280;35515;48.766;9.176;2023-03-12T01:49:13;98000.19;;;0.94;64.58
49611;BME280;35515;48.766;9.176;2023-03-12T01:51:44;98008.56;;;0.99;65.59
49611;BME280;35515;48.766;9.176;2023-03-12T01:54:15;98009.28;;;1.02;64.73
49611;BME280;35515;48.766;9.176;2023-03-12T01:56:42;98002.78;;;1.04;65.01
49611;BME280;35515;48.766;9.176;2023-03-12T01:59:12;98009.47;;;1.08;64.97
49611;BME280;35515;48.766;9.176;2023-03-12T02:01:41;98002.19;;;1.19;64.07
49611;BME280;35515;48.766;9.176;2023-03-12T02:04:10;98002.84;;;1.12;64.00
49611;BME280;35515;48.766;9.176;2023-03-12T02:06:41;98009.31;;;1.10;64.67
49611;BME280;35515;48.766;9.176;2023-03-12T02:09:11;97997.75;;;1.01;64.91
49611;BME280;35515;48.766;9.176;2023-03-12T02:11:38;97996.09;;;1.00;65.47
49611;BME280;35515;48.766;9.176;2023-03-12T02:14:04;98002.03;;;0.94;66.14
49611;BME280;35515;48.766;9.176;2023-03-12T02:16:31;97998.81;;;1.08;65.36
49611;BME280;35515;48.766;9.176;2023-03-12T02:18:59;98006.28;;;1.05;65.36
49611;BME280;35515;48.766;9.176;2023-03-12T02:21:29;98001.94;;;1.04;65.29
49611;BME280;35515;48.766;9.176;2023-03-12T02:24:02;97997.44;;;1.04;65.45
49611;BME280;35515;48.766;9.176;2023-03-12T02:26:34;97993.09;;;1.03;65.81
49611;BME280;35515;48.766;9.176;2023-03-12T02:29:01;97990.81;;;1.08;64.97
49611;BME280;35515;48.766;9.176;2023-03-12T02:31:32;97989.88;;;1.17;64.54
49611;BME280;35515;48.766;9.176;2023-03-12T02:34:00;97989.16;;;1.15;65.23
49611;BME280;35515;48.766;9.176;2023-03-12T02:36:27;97989.50;;;1.12;64.69
49611;BME280;35515;48.766;9.176;2023-03-12T02:38:54;97993.88;;;1.22;64.42
49611;BME280;35515;48.766;9.176;2023-03-12T02:41:23;97994.72;;;1.22;64.41
49611;BME280;35515;48.766;9.176;2023-03-12T02:43:57;97999.88;;;1.24;64.17
49611;BME280;35515;48.766;9.176;2023-03-12T02:46:26;97989.53;;;1.21;64.69
49611;BME280;35515;48.766;9.176;2023-03-12T02:48:55;97987.81;;;1.11;65.01
49611;BME280;35515;48.766;9.176;2023-03-12T02:51:21;97987.00;;;1.11;65.23
49611;BME280;35515;48.766;9.176;2023-03-12T02:53:48;97994.84;;;1.12;65.57
49611;BME280;35515;48.766;9.176;2023-03-12T02:56:19;97997.00;;;1.17;65.79
49611;BME280;35515;48.766;9.176;2023-03-12T02:58:46;97983.47;;;1.10;65.70
49611;BME280;35515;48.766;9.176;2023-03-12T03:01:14;97985.16;;;1.11;65.60
49611;BME280;35515;48.766;9.176;2023-03-12T03:03:40;97985.84;;;1.13;66.61
49611;BME280;35515;48.766;9.176;2023-03-12T03:06:07;97989.16;;;1.15;65.41
49611;BME280;35515;48.766;9.176;2023-03-12T03:08:33;97985.34;;;1.18;66.02
49611;BME280;35515;48.766;9.176;2023-03-12T03:11:00;97984.97;;;1.13;66.36
49611;BME280;35515;48.766;9.176;2023-03-12T03:13:27;97986.19;;;1.19;65.67
49611;BME280;35515;48.766;9.176;2023-03-12T03:15:53;97981.50;;;1.12;65.65
49611;BME280;35515;48.766;9.176;2023-03-12T03:18:23;97977.84;;;1.13;66.47
49611;BME280;35515;48.766;9.176;2023-03-12T03:20:54;97973.91;;;1.26;66.51
49611;BME280;35515;48.766;9.176;2023-03-12T03:23:21;97963.38;;;1.24;66.19
49611;BME280;35515;48.766;9.176;2023-03-12T03:25:48;97957.63;;;1.11;66.61
49611;BME280;35515;48.766;9.176;2023-03-12T03:28:14;97951.16;;;1.13;66.42
49611;BME280;35515;48.766;9.176;2023-03-12T03:30:41;97951.16;;;1.13;66.28
49611;BME280;35515;48.766;9.176;2023-03-12T03:33:08;97959.00;;;1.15;66.43
49611;BME280;35515;48.766;9.176;2023-03-12T03:35:35;97956.03;;;1.26;66.50
49611;BME280;35515;48.766;9.176;2023-03-12T03:38:02;97960.41;;;1.36;66.78
49611;BME280;35515;48.766;9.176;2023-03-12T03:40:29;97958.28;;;1.39;66.30
49611;BME280;35515;48.766;9.176;2023-03-12T03:42:55;97963.75;;;1.29;66.63
49611;BME280;35515;48.766;9.176;2023-03-12T03:45:22;97960.22;;;1.29;66.97
49611;BME280;35515;48.766;9.176;2023-03-12T03:47:48;97956.72;;;1.28;66.96
49611;BME280;35515;48.766;9.176;2023-03-12T03:50:15;97966.91;;;1.33;67.21
49611;BME280;35515;48.766;9.176;2023-03-12T03:52:43;97966.81;;;1.43;66.58
49611;BME280;35515;48.766;9.176;2023-03-12T03:55:10;97966.88;;;1.59;65.43
49611;BME280;35515;48.766;9.176;2023-03-12T03:57:36;97964.00;;;1.53;65.81
49611;BME280;35515;48.766;9.176;2023-03-12T04:00:04;97963.00;;;1.54;65.80
49611;BME280;35515;48.766;9.176;2023-03-12T04:02:34;97968.72;;;1.59;65.84
49611;BME280;35515;48.766;9.176;2023-03-12T04:05:02;97956.69;;;1.55;65.76
49611;BME280;35515;48.766;9.176;2023-03-12T04:07:28;97949.84;;;1.52;66.19
49611;BME280;35515;48.766;9.176;2023-03-12T04:09:56;97947.84;;;1.62;65.75
49611;BME280;35515;48.766;9.176;2023-03-12T04:12:23;97947.50;;;1.57;66.43
49611;BME280;35515;48.766;9.176;2023-03-12T04:14:50;97947.00;;;1.54;66.28
49611;BME280;35515;48.766;9.176;2023-03-12T04:17:17;97938.03;;;1.71;65.92
49611;BME280;35515;48.766;9.176;2023-03-12T04:19:43;97948.91;;;1.78;65.90
49611;BME280;35515;48.766;9.176;2023-03-12T04:22:10;97944.03;;;1.73;65.23
49611;BME280;35515;48.766;9.176;2023-03-12T04:24:36;97946.69;;;1.73;65.52
49611;BME280;35515;48.766;9.176;2023-03-12T04:27:04;97952.75;;;1.83;65.44
49611;BME280;35515;48.766;9.176;2023-03-12T04:29:31;97944.56;;;1.85;64.97
49611;BME280;35515;48.766;9.176;2023-03-12T04:31:58;97948.38;;;1.74;65.19
49611;BME280;35515;48.766;9.176;2023-03-12T04:34:24;97955.94;;;1.79;65.09
49611;BME280;35515;48.766;9.176;2023-03-12T04:36:51;97951.59;;;1.86;65.36
49611;BME280;35515;48.766;9.176;2023-03-12T04:39:18;97960.78;;;1.92;65.02
49611;BME280;35515;48.766;9.176;2023-03-12T04:41:45;97959.44;;;1.88;65.01
49611;BME280;35515;48.766;9.176;2023-03-12T04:44:13;97956.94;;;1.86;65.34
49611;BME280;35515;48.766;9.176;2023-03-12T04:46:40;97946.09;;;1.88;65.18
49611;BME280;35515;48.766;9.176;2023-03-12T04:49:07;97955.31;;;2.02;65.00
49611;BME280;35515;48.766;9.176;2023-03-12T04:51:33;97953.13;;;1.97;65.01
49611;BME280;35515;48.766;9.176;2023-03-12T04:54:00;97946.63;;;1.99;65.50
49611;BME280;35515;48.766;9.176;2023-03-12T04:56:26;97950.25;;;1.90;65.30
49611;BME280;35515;48.766;9.176;2023-03-12T04:58:53;97948.75;;;1.88;65.87
49611;BME280;35515;48.766;9.176;2023-03-12T05:01:24;97952.13;;;1.98;65.79
49611;BME280;35515;48.766;9.176;2023-03-12T05:03:51;97946.44;;;2.01;65.51
49611;BME280;35515;48.766;9.176;2023-03-12T05:06:18;97953.47;;;2.10;65.56
49611;BME280;35515;48.766;9.176;2023-03-12T05:08:45;97947.94;;;2.04;66.11
49611;BME280;35515;48.766;9.176;2023-03-12T05:11:12;97949.13;;;2.01;66.04
49611;BME280;35515;48.766;9.176;2023-03-12T05:13:39;97944.13;;;2.14;65.40
49611;BME280;35515;48.766;9.176;2023-03-12T05:16:06;97933.78;;;2.11;66.41
49611;BME280;35515;48.766;9.176;2023-03-12T05:18:34;97934.63;;;2.20;65.71
49611;BME280;35515;48.766;9.176;2023-03-12T05:21:03;97937.78;;;2.24;65.76
49611;BME280;35515;48.766;9.176;2023-03-12T05:23:31;97931.63;;;2.23;65.91
49611;BME280;35515;48.766;9.176;2023-03-12T05:25:58;97928.78;;;2.25;65.72
49611;BME280;35515;48.766;9.176;2023-03-12T05:28:25;97931.09;;;2.20;66.85
49611;BME280;35515;48.766;9.176;2023-03-12T05:30:53;97938.47;;;2.09;66.56
49611;BME280;35515;48.766;9.176;2023-03-12T05:33:19;97940.47;;;2.15;67.29
49611;BME280;35515;48.766;9.176;2023-03-12T05:35:48;97943.63;;;2.11;68.33
49611;BME280;35515;48.766;9.176;2023-03-12T05:38:14;97945.81;;;2.24;68.12
49611;BME280;35515;48.766;9.176;2023-03-12T05:40:41;97940.84;;;2.45;67.81
49611;BME280;35515;48.766;9.176;2023-03-12T05:43:08;97937.13;;;2.38;69.12
49611;BME280;35515;48.766;9.176;2023-03-12T05:45:34;97944.16;;;2.31;68.93
49611;BME280;35515;48.766;9.176;2023-03-12T05:48:01;97945.63;;;2.25;69.90
49611;BME280;35515;48.766;9.176;2023-03-12T05:50:27;97948.81;;;2.29;70.20
49611;BME280;35515;48.766;9.176;2023-03-12T05:52:55;97952.50;;;2.20;70.85
49611;BME280;35515;48.766;9.176;2023-03-12T05:55:21;97963.69;;;2.23;70.92
49611;BME280;35515;48.766;9.176;2023-03-12T05:57:48;97965.84;;;2.28;72.63
49611;BME280;35515;48.766;9.176;2023-03-12T06:00:15;97959.84;;;2.17;73.55
49611;BME280;35515;48.766;9.176;2023-03-12T06:02:42;97972.19;;;2.18;76.20
49611;BME280;35515;48.766;9.176;2023-03-12T06:05:09;97971.03;;;2.21;75.25
49611;BME280;35515;48.766;9.176;2023-03-12T06:07:35;97966.88;;;2.27;75.53
49611;BME280;35515;48.766;9.176;2023-03-12T06:10:04;97974.03;;;2.18;78.19
49611;BME280;35515;48.766;9.176;2023-03-12T06:12:31;97971.19;;;2.20;78.00
49611;BME280;35515;48.766;9.176;2023-03-12T06:14:57;97966.53;;;2.13;79.23
49611;BME280;35515;48.766;9.176;2023-03-12T06:17:24;97964.16;;;2.18;79.75
49611;BME280;35515;48.766;9.176;2023-03-12T06:19:50;97954.16;;;2.21;78.81
49611;BME280;35515;48.766;9.176;2023-03-12T06:22:18;97960.69;;;2.18;79.85
49611;BME280;35515;48.766;9.176;2023-03-12T06:24:44;97955.34;;;2.18;80.78
49611;BME280;35515;48.766;9.176;2023-03-12T06:27:12;97957.84;;;2.20;80.93
49611;BME280;35515;48.766;9.176;2023-03-12T06:29:39;97943.47;;;2.21;81.67
49611;BME280;35515;48.766;9.176;2023-03-12T06:32:06;97953.19;;;2.30;80.88
49611;BME280;35515;48.766;9.176;2023-03-12T06:34:33;97950.50;;;2.38;80.37
49611;BME280;35515;48.766;9.176;2023-03-12T06:37:00;97947.81;;;2.38;80.75
49611;BME280;35515;48.766;9.176;2023-03-12T06:39:26;97947.16;;;2.20;82.79
49611;BME280;35515;48.766;9.176;2023-03-12T06:41:54;97948.81;;;2.21;82.04
49611;BME280;35515;48.766;9.176;2023-03-12T06:44:22;97942.13;;;2.16;82.36
49611;BME280;35515;48.766;9.176;2023-03-12T06:46:48;97942.66;;;2.37;82.10
49611;BME280;35515;48.766;9.176;2023-03-12T06:49:16;97942.66;;;2.28;81.88
49611;BME280;35515;48.766;9.176;2023-03-12T06:51:43;97935.47;;;2.29;82.80
49611;BME280;35515;48.766;9.176;2023-03-12T06:54:09;97927.59;;;2.27;84.22
49611;BME280;35515;48.766;9.176;2023-03-12T06:56:36;97936.47;;;2.36;84.93
49611;BME280;35515;48.766;9.176;2023-03-12T06:59:03;97933.81;;;2.44;84.38
49611;BME280;35515;48.766;9.176;2023-03-12T07:01:32;97945.50;;;2.68;83.57
49611;BME280;35515;48.766;9.176;2023-03-12T07:03:58;97945.66;;;2.58;86.14
49611;BME280;35515;48.766;9.176;2023-03-12T07:06:25;97937.78;;;2.65;86.07
49611;BME280;35515;48.766;9.176;2023-03-12T07:08:52;97936.97;;;2.64;86.38
49611;BME280;35515;48.766;9.176;2023-03-12T07:11:19;97939.97;;;2.78;86.11
49611;BME280;35515;48.766;9.176;2023-03-12T07:13:46;97943.63;;;2.85;84.96
49611;BME280;35515;48.766;9.176;2023-03-12T07:16:12;97931.91;;;3.03;84.17
49611;BME280;35515;48.766;9.176;2023-03-12T07:18:40;97942.44;;;2.96;83.63
49611;BME280;35515;48.766;9.176;2023-03-12T07:21:07;97947.47;;;2.82;85.82
49611;BME280;35515;48.766;9.176;2023-03-12T07:23:34;97955.34;;;2.76;87.36
49611;BME280;35515;48.766;9.176;2023-03-12T07:26:03;97959.03;;;2.75;87.06
49611;BME280;35515;48.766;9.176;2023-03-12T07:28:29;97956.03;;;2.70;86.39
49611;BME280;35515;48.766;9.176;2023-03-12T07:30:59;97955.84;;;2.71;85.23
49611;BME280;35515;48.766;9.176;2023-03-12T07:33:26;97945.16;;;2.71;87.21
49611;BME280;35515;48.766;9.176;2023-03-12T07:35:53;97944.81;;;2.91;85.42
49611;BME280;35515;48.766;9.176;2023-03-12T07:38:20;97957.03;;;2.68;86.99
49611;BME280;35515;48.766;9.176;2023-03-12T07:40:49;97948.47;;;2.98;85.78
49611;BME280;35515;48.766;9.176;2023-03-12T07:43:16;97963.53;;;2.91;86.20
49611;BME280;35515;48.766;9.176;2023-03-12T07:45:42;97956.16;;;3.09;85.63
49611;BME280;35515;48.766;9.176;2023-03-12T07:48:09;97949.78;;;3.02;83.99
49611;BME280;35515;48.766;9.176;2023-03-12T07:50:36;97945.13;;;3.04;83.88
49611;BME280;35515;48.766;9.176;2023-03-12T07:53:05;97944.47;;;2.94;85.86
49611;BME280;35515;48.766;9.176;2023-03-12T07:55:31;97939.44;;;2.99;86.10
49611;BME280;35515;48.766;9.176;2023-03-12T07:57:59;97943.63;;;3.01;85.82
49611;BME280;35515;48.766;9.176;2023-03-12T08:00:26;97938.44;;;2.83;86.54
49611;BME280;35515;48.766;9.176;2023-03-12T08:02:53;97938.09;;;2.95;86.50
49611;BME280;35515;48.766;9.176;2023-03-12T08:05:20;97943.94;;;2.98;88.21
49611;BME280;35515;48.766;9.176;2023-03-12T08:07:49;97947.97;;;3.03;86.98
49611;BME280;35515;48.766;9.176;2023-03-12T08:10:17;97952.25;;;3.12;87.42
49611;BME280;35515;48.766;9.176;2023-03-12T08:12:44;97950.78;;;3.17;86.76
49611;BME280;35515;48.766;9.176;2023-03-12T08:15:11;97941.72;;;3.18;86.28
49611;BME280;35515;48.766;9.176;2023-03-12T08:17:38;97953.09;;;3.21;85.97
49611;BME280;35515;48.766;9.176;2023-03-12T08:20:06;97947.22;;;3.33;85.38
49611;BME280;35515;48.766;9.176;2023-03-12T08:22:34;97952.59;;;3.25;85.90
49611;BME280;35515;48.766;9.176;2023-03-12T08:25:01;97954.72;;;3.38;86.49
49611;BME280;35515;48.766;9.176;2023-03-12T08:27:29;97954.00;;;3.53;86.11
49611;BME280;35515;48.766;9.176;2023-03-12T08:29:55;97953.19;;;3.44;86.51
49611;BME280;35515;48.766;9.176;2023-03-12T08:32:22;97957.03;;;3.49;87.15
49611;BME280;35515;48.766;9.176;2023-03-12T08:34:49;97952.00;;;3.55;86.77
49611;BME280;35515;48.766;9.176;2023-03-12T08:37:15;97953.31;;;3.50;87.64
49611;BME280;35515;48.766;9.176;2023-03-12T08:39:42;97961.63;;;3.72;87.83
49611;BME280;35515;48.766;9.176;2023-03-12T08:42:08;97957.63;;;3.68;87.46
49611;BME280;35515;48.766;9.176;2023-03-12T08:44:36;97960.94;;;3.70;88.16
49611;BME280;35515;48.766;9.176;2023-03-12T08:47:03;97961.63;;;3.72;88.19
49611;BME280;35515;48.766;9.176;2023-03-12T08:49:29;97965.09;;;3.81;91.25
49611;BME280;35515;48.766;9.176;2023-03-12T08:51:56;97958.22;;;3.87;90.63
49611;BME280;35515;48.766;9.176;2023-03-12T08:54:22;97953.81;;;3.94;90.96
49611;BME280;35515;48.766;9.176;2023-03-12T08:56:49;97962.97;;;3.99;90.81
49611;BME280;35515;48.766;9.176;2023-03-12T08:59:16;97959.53;;;4.14;91.58
49611;BME280;35515;48.766;9.176;2023-03-12T09:01:44;97960.03;;;4.17;91.12
49611;BME280;35515;48.766;9.176;2023-03-12T09:04:11;97946.97;;;4.14;93.38
49611;BME280;35515;48.766;9.176;2023-03-12T09:06:37;97955.38;;;4.11;93.44
49611;BME280;35515;48.766;9.176;2023-03-12T09:09:04;97949.81;;;4.13;94.84
49611;BME280;35515;48.766;9.176;2023-03-12T09:11:33;97960.34;;;4.23;96.29
49611;BME280;35515;48.766;9.176;2023-03-12T09:14:01;97947.34;;;4.34;96.25
49611;BME280;35515;48.766;9.176;2023-03-12T09:16:28;97941.75;;;4.44;97.23
49611;BME280;35515;48.766;9.176;2023-03-12T09:18:56;97949.06;;;4.50;97.44
49611;BME280;35515;48.766;9.176;2023-03-12T09:21:22;97950.84;;;4.58;98.30
49611;BME280;35515;48.766;9.176;2023-03-12T09:23:49;97952.63;;;4.66;98.88
49611;BME280;35515;48.766;9.176;2023-03-12T09:26:15;97956.09;;;4.75;98.23
49611;BME280;35515;48.766;9.176;2023-03-12T09:28:42;97958.09;;;4.96;98.65
49611;BME280;35515;48.766;9.176;2023-03-12T09:31:09;97950.94;;;5.03;98.24
49611;BME280;35515;48.766;9.176;2023-03-12T09:33:36;97951.25;;;5.08;99.82
49611;BME280;35515;48.766;9.176;2023-03-12T09:36:05;97958.81;;;5.19;99.56
49611;BME280;35515;48.766;9.176;2023-03-12T09:38:31;97958.09;;;5.26;100.00
49611;BME280;35515;48.766;9.176;2023-03-12T09:41:00;97955.50;;;5.47;99.09
49611;BME280;35515;48.766;9.176;2023-03-12T09:43:32;97964.22;;;5.49;100.00
49611;BME280;35515;48.766;9.176;2023-03-12T09:46:01;97961.81;;;5.69;98.45
49611;BME280;35515;48.766;9.176;2023-03-12T09:48:31;97959.75;;;5.72;99.27
49611;BME280;35515;48.766;9.176;2023-03-12T09:51:00;97961.69;;;5.78;99.09
49611;BME280;35515;48.766;9.176;2023-03-12T09:53:33;97965.88;;;5.80;100.00
49611;BME280;35515;48.766;9.176;2023-03-12T09:56:03;97957.69;;;5.89;100.00
49611;BME280;35515;48.766;9.176;2023-03-12T09:58:35;97958.25;;;5.99;98.31
49611;BME280;35515;48.766;9.176;2023-03-12T10:01:09;97969.28;;;6.04;99.51
49611;BME280;35515;48.766;9.176;2023-03-12T10:04:12;97967.31;;;6.13;99.77
49611;BME280;35515;48.766;9.176;2023-03-12T10:06:46;97965.34;;;6.22;99.56
49611;BME280;35515;48.766;9.176;2023-03-12T10:09:28;97973.69;;;6.27;100.00
49611;BME280;35515;48.766;9.176;2023-03-12T10:12:06;97974.13;;;6.30;100.00
49611;BME280;35515;48.766;9.176;2023-03-12T10:14:45;97981.69;;;6.42;100.00
49611;BME280;35515;48.766;9.176;2023-03-12T10:17:27;97975.09;;;6.44;100.00
49611;BME280;35515;48.766;9.176;2023-03-12T10:20:07;97979.91;;;6.49;100.00
49611;BME280;35515;48.766;9.176;2023-03-12T10:22:48;97983.09;;;6.59;100.00
49611;BME280;35515;48.766;9.176;2023-03-12T10:25:23;97976.59;;;6.97;100.00
49611;BME280;35515;48.766;9.176;2023-03-12T10:27:54;97974.81;;;7.04;100.00
49611;BME280;35515;48.766;9.176;2023-03-12T10:30:24;97967.34;;;7.06;100.00
49611;BME280;35515;48.766;9.176;2023-03-12T10:32:55;97968.00;;;7.08;100.00
49611;BME280;35515;48.766;9.176;2023-03-12T10:35:25;97970.22;;;7.33;100.00
49611;BME280;35515;48.766;9.176;2023-03-12T10:37:53;97984.94;;;7.30;100.00
49611;BME280;35515;48.766;9.176;2023-03-12T10:40:25;97991.34;;;7.58;100.00
49611;BME280;35515;48.766;9.176;2023-03-12T10:42:52;97985.47;;;7.47;100.00
49611;BME280;35515;48.766;9.176;2023-03-12T10:45:26;97999.13;;;7.46;100.00
49611;BME280;35515;48.766;9.176;2023-03-12T10:47:58;97995.88;;;7.50;100.00
49611;BME280;35515;48.766;9.176;2023-03-12T10:50:27;98010.97;;;7.51;100.00
49611;BME280;35515;48.766;9.176;2023-03-12T10:53:13;98009.13;;;7.52;100.00
49611;BME280;35515;48.766;9.176;2023-03-12T10:55:56;98007.09;;;7.61;100.00
49611;BME280;35515;48.766;9.176;2023-03-12T10:58:24;98022.00;;;7.57;100.00
49611;BME280;35515;48.766;9.176;2023-03-12T11:00:55;98023.84;;;7.49;100.00
49611;BME280;35515;48.766;9.176;2023-03-12T11:03:23;98024.94;;;7.62;100.00
49611;BME280;35515;48.766;9.176;2023-03-12T11:05:52;98021.81;;;7.58;100.00
49611;BME280;35515;48.766;9.176;2023-03-12T11:08:20;98024.50;;;7.58;100.00
49611;BME280;35515;48.766;9.176;2023-03-12T11:10:49;98024.47;;;7.51;100.00
49611;BME280;35515;48.766;9.176;2023-03-12T11:13:23;98031.53;;;7.52;100.00
49611;BME280;35515;48.766;9.176;2023-03-12T11:15:50;98031.13;;;7.56;100.00
49611;BME280;35515;48.766;9.176;2023-03-12T11:18:23;98034.06;;;7.61;100.00
49611;BME280;35515;48.766;9.176;2023-03-12T11:20:52;98033.31;;;7.74;100.00
49611;BME280;35515;48.766;9.176;2023-03-12T11:23:24;98024.88;;;7.83;100.00
49611;BME280;35515;48.766;9.176;2023-03-12T11:25:56;98024.50;;;7.86;100.00
49611;BME280;35515;48.766;9.176;2023-03-12T11:28:29;98023.97;;;8.11;100.00
49611;BME280;35515;48.766;9.176;2023-03-12T11:30:59;98018.53;;;8.04;100.00
49611;BME280;35515;48.766;9.176;2023-03-12T11:33:26;98019.97;;;8.00;100.00
49611;BME280;35515;48.766;9.176;2023-03-12T11:36:04;98015.63;;;8.06;100.00
49611;BME280;35515;48.766;9.176;2023-03-12T11:38:37;98023.59;;;8.14;100.00
49611;BME280;35515;48.766;9.176;2023-03-12T11:41:17;98017.78;;;8.17;100.00
49611;BME280;35515;48.766;9.176;2023-03-12T11:43:54;98017.38;;;8.27;100.00
49611;BME280;35515;48.766;9.176;2023-03-12T11:46:35;98014.69;;;8.27;100.00
49611;BME280;35515;48.766;9.176;2023-03-12T11:49:24;98018.72;;;8.51;100.00
49611;BME280;35515;48.766;9.176;2023-03-12T11:52:01;98016.25;;;8.57;100.00
49611;BME280;35515;48.766;9.176;2023-03-12T11:54:51;98016.72;;;8.67;100.00
49611;BME280;35515;48.766;9.176;2023-03-12T11:57:30;98016.28;;;8.70;100.00
49611;BME280;35515;48.766;9.176;2023-03-12T12:00:10;98010.47;;;8.66;100.00
49611;BME280;35515;48.766;9.176;2023-03-12T12:02:57;98020.22;;;8.67;100.00
49611;BME280;35515;48.766;9.176;2023-03-12T12:05:34;98010.06;;;8.76;100.00
49611;BME280;35515;48.766;9.176;2023-03-12T12:08:22;98012.56;;;8.84;100.00
49611;BME280;35515;48.766;9.176;2023-03-12T12:11:00;98012.56;;;8.78;100.00
49611;BME280;35515;48.766;9.176;2023-03-12T12:13:36;97987.22;;;8.85;100.00
49611;BME280;35515;48.766;9.176;2023-03-12T12:16:21;97994.09;;;8.81;100.00
49611;BME280;35515;48.766;9.176;2023-03-12T12:19:00;97987.66;;;9.02;98.91
49611;BME280;35515;48.766;9.176;2023-03-12T12:21:42;97988.91;;;9.00;98.63
49611;BME280;35515;48.766;9.176;2023-03-12T12:24:23;97990.16;;;9.11;97.81
49611;BME280;35515;48.766;9.176;2023-03-12T12:27:00;97983.09;;;9.03;97.29
49611;BME280;35515;48.766;9.176;2023-03-12T12:29:39;97986.22;;;9.13;96.88
49611;BME280;35515;48.766;9.176;2023-03-12T12:32:14;97983.91;;;9.24;94.65
49611;BME280;35515;48.766;9.176;2023-03-12T12:35:02;97970.41;;;9.24;95.27
49611;BME280;35515;48.766;9.176;2023-03-12T12:37:39;97975.81;;;9.24;94.76
49611;BME280;35515;48.766;9.176;2023-03-12T12:40:15;97969.97;;;9.27;94.20
49611;BME280;35515;48.766;9.176;2023-03-12T12:42:51;97960.63;;;9.23;94.13
49611;BME280;35515;48.766;9.176;2023-03-12T12:45:22;97954.56;;;9.41;90.64
49611;BME280;35515;48.766;9.176;2023-03-12T12:47:54;97953.31;;;9.43;90.09
49611;BME280;35515;48.766;9.176;2023-03-12T12:50:25;97960.19;;;9.39;90.92
49611;BME280;35515;48.766;9.176;2023-03-12T12:52:57;97968.47;;;9.58;88.06
49611;BME280;35515;48.766;9.176;2023-03-12T12:55:27;97971.19;;;9.44;88.39
49611;BME280;35515;48.766;9.176;2023-03-12T12:57:58;97963.06;;;9.51;87.19
49611;BME280;35515;48.766;9.176;2023-03-12T13:00:42;97963.06;;;9.58;87.00
49611;BME280;35515;48.766;9.176;2023-03-12T13:03:12;97954.31;;;9.56;86.45
49611;BME280;35515;48.766;9.176;2023-03-12T13:05:45;97960.56;;;9.63;85.97
49611;BME280;35515;48.766;9.176;2023-03-12T13:08:34;97970.53;;;9.69;85.16
49611;BME280;35515;48.766;9.176;2023-03-12T13:11:05;97963.00;;;9.71;84.37
49611;BME280;35515;48.766;9.176;2023-03-12T13:13:48;97954.88;;;9.78;84.46
49611;BME280;35515;48.766;9.176;2023-03-12T13:16:32;97971.94;;;9.78;85.25
49611;BME280;35515;48.766;9.176;2023-03-12T13:19:01;97985.41;;;9.98;87.00
49611;BME280;35515;48.766;9.176;2023-03-12T13:21:35;97982.59;;;9.73;91.33